sensor_id;sensor_type;location;lat;lon;timestamp;P1;durP1;ratioP1;P2;durP2;ratioP2
20138;SDS011;10230;51.502;10.800;2022-10-16T00:01:47;0.50;;;0.37;;
20138;SDS011;10230;51.502;10.800;2022-10-16T00:04:13;0.93;;;0.45;;
20138;SDS011;10230;51.502;10.800;2022-10-16T00:06:38;0.40;;;0.40;;
20138;SDS011;10230;51.502;10.800;2022-10-16T00:09:04;1.27;;;0.50;;
20138;SDS011;10230;51.502;10.800;2022-10-16T00:11:32;0.50;;;0.30;;
20138;SDS011;10230;51.502;10.800;2022-10-16T00:14:02;0.63;;;0.60;;
20138;SDS011;10230;51.502;10.800;2022-10-16T00:16:29;0.73;;;0.70;;
20138;SDS011;10230;51.502;10.800;2022-10-16T00:18:56;0.28;;;0.28;;
20138;SDS011;10230;51.502;10.800;2022-10-16T00:21:23;1.58;;;0.68;;
20138;SDS011;10230;51.502;10.800;2022-10-16T00:23:53;1.00;;;0.70;;
20138;SDS011;10230;51.502;10.800;2022-10-16T00:26:20;1.50;;;0.93;;
20138;SDS011;10230;51.502;10.800;2022-10-16T00:28:47;1.90;;;1.23;;
20138;SDS011;10230;51.502;10.800;2022-10-16T00:31:14;2.40;;;1.23;;
20138;SDS011;10230;51.502;10.800;2022-10-16T00:33:40;2.47;;;1.67;;
20138;SDS011;10230;51.502;10.800;2022-10-16T00:36:07;2.35;;;1.00;;
20138;SDS011;10230;51.502;10.800;2022-10-16T00:38:35;1.60;;;1.00;;
20138;SDS011;10230;51.502;10.800;2022-10-16T00:41:24;1.75;;;1.02;;
20138;SDS011;10230;51.502;10.800;2022-10-16T00:43:55;2.53;;;1.15;;
20138;SDS011;10230;51.502;10.800;2022-10-16T00:46:57;1.13;;;0.93;;
20138;SDS011;10230;51.502;10.800;2022-10-16T00:49:22;0.87;;;0.73;;
20138;SDS011;10230;51.502;10.800;2022-10-16T00:52:21;0.70;;;0.70;;
20138;SDS011;10230;51.502;10.800;2022-10-16T00:55:00;2.00;;;0.60;;
20138;SDS011;10230;51.502;10.800;2022-10-16T00:57:33;1.35;;;0.85;;
20138;SDS011;10230;51.502;10.800;2022-10-16T01:00:08;0.60;;;0.60;;
20138;SDS011;10230;51.502;10.800;2022-10-16T01:02:37;1.25;;;0.50;;
20138;SDS011;10230;51.502;10.800;2022-10-16T01:05:04;3.60;;;0.75;;
20138;SDS011;10230;51.502;10.800;2022-10-16T01:07:46;0.75;;;0.70;;
20138;SDS011;10230;51.502;10.800;2022-10-16T01:10:52;0.98;;;0.80;;
20138;SDS011;10230;51.502;10.800;2022-10-16T01:14:00;0.80;;;0.50;;
20138;SDS011;10230;51.502;10.800;2022-10-16T01:16:57;0.60;;;0.47;;
20138;SDS011;10230;51.502;10.800;2022-10-16T01:25:20;0.50;;;0.50;;
20138;SDS011;10230;51.502;10.800;2022-10-16T01:27:59;1.10;;;0.60;;
20138;SDS011;10230;51.502;10.800;2022-10-16T01:30:55;1.10;;;0.80;;
20138;SDS011;10230;51.502;10.800;2022-10-16T01:33:33;1.08;;;0.98;;
20138;SDS011;10230;51.502;10.800;2022-10-16T01:36:15;0.90;;;0.60;;
20138;SDS011;10230;51.502;10.800;2022-10-16T01:39:09;0.80;;;0.80;;
20138;SDS011;10230;51.502;10.800;2022-10-16T01:41:51;0.80;;;0.80;;
20138;SDS011;10230;51.502;10.800;2022-10-16T01:44:27;0.65;;;0.63;;
20138;SDS011;10230;51.502;10.800;2022-10-16T01:47:23;0.60;;;0.60;;
20138;SDS011;10230;51.502;10.800;2022-10-16T01:49:52;1.60;;;0.65;;
20138;SDS011;10230;51.502;10.800;2022-10-16T01:52:30;1.08;;;0.80;;
20138;SDS011;10230;51.502;10.800;2022-10-16T01:55:03;3.65;;;0.93;;
20138;SDS011;10230;51.502;10.800;2022-10-16T01:57:41;0.80;;;0.80;;
20138;SDS011;10230;51.502;10.800;2022-10-16T02:00:14;0.98;;;0.90;;
20138;SDS011;10230;51.502;10.800;2022-10-16T02:02:45;1.08;;;0.80;;
20138;SDS011;10230;51.502;10.800;2022-10-16T02:05:28;1.98;;;0.95;;
20138;SDS011;10230;51.502;10.800;2022-10-16T02:07:59;1.05;;;0.90;;
20138;SDS011;10230;51.502;10.800;2022-10-16T02:10:27;1.00;;;0.90;;
20138;SDS011;10230;51.502;10.800;2022-10-16T02:13:17;1.30;;;0.75;;
20138;SDS011;10230;51.502;10.800;2022-10-16T02:15:47;1.60;;;0.88;;
20138;SDS011;10230;51.502;10.800;2022-10-16T02:18:17;1.00;;;0.93;;
20138;SDS011;10230;51.502;10.800;2022-10-16T02:23:42;1.27;;;1.00;;
20138;SDS011;10230;51.502;10.800;2022-10-16T02:26:11;2.45;;;1.10;;
20138;SDS011;10230;51.502;10.800;2022-10-16T02:28:42;1.63;;;1.52;;
20138;SDS011;10230;51.502;10.800;2022-10-16T02:31:16;0.90;;;0.90;;
20138;SDS011;10230;51.502;10.800;2022-10-16T02:33:52;1.85;;;0.90;;
20138;SDS011;10230;51.502;10.800;2022-10-16T02:36:24;1.52;;;1.20;;
20138;SDS011;10230;51.502;10.800;2022-10-16T02:38:56;1.38;;;1.25;;
20138;SDS011;10230;51.502;10.800;2022-10-16T02:41:26;1.02;;;0.93;;
20138;SDS011;10230;51.502;10.800;2022-10-16T02:43:56;0.80;;;0.80;;
20138;SDS011;10230;51.502;10.800;2022-10-16T02:46:22;0.90;;;0.85;;
20138;SDS011;10230;51.502;10.800;2022-10-16T02:48:49;1.35;;;1.00;;
20138;SDS011;10230;51.502;10.800;2022-10-16T02:51:15;1.75;;;0.98;;
20138;SDS011;10230;51.502;10.800;2022-10-16T02:53:43;1.05;;;1.05;;
20138;SDS011;10230;51.502;10.800;2022-10-16T02:56:10;2.15;;;0.88;;
20138;SDS011;10230;51.502;10.800;2022-10-16T02:58:44;1.40;;;1.08;;
20138;SDS011;10230;51.502;10.800;2022-10-16T03:01:14;0.93;;;0.85;;
20138;SDS011;10230;51.502;10.800;2022-10-16T03:03:42;2.53;;;0.90;;
20138;SDS011;10230;51.502;10.800;2022-10-16T03:06:08;1.17;;;1.00;;
20138;SDS011;10230;51.502;10.800;2022-10-16T03:08:36;1.13;;;0.95;;
20138;SDS011;10230;51.502;10.800;2022-10-16T03:11:02;0.93;;;0.82;;
20138;SDS011;10230;51.502;10.800;2022-10-16T03:13:29;0.82;;;0.82;;
20138;SDS011;10230;51.502;10.800;2022-10-16T03:15:55;1.63;;;0.70;;
20138;SDS011;10230;51.502;10.800;2022-10-16T03:18:21;0.65;;;0.65;;
20138;SDS011;10230;51.502;10.800;2022-10-16T03:20:47;1.08;;;0.80;;
20138;SDS011;10230;51.502;10.800;2022-10-16T03:23:12;0.63;;;0.63;;
20138;SDS011;10230;51.502;10.800;2022-10-16T03:25:38;1.63;;;0.70;;
20138;SDS011;10230;51.502;10.800;2022-10-16T03:28:05;1.27;;;0.90;;
20138;SDS011;10230;51.502;10.800;2022-10-16T03:30:30;2.10;;;1.00;;
20138;SDS011;10230;51.502;10.800;2022-10-16T03:32:56;0.68;;;0.68;;
20138;SDS011;10230;51.502;10.800;2022-10-16T03:35:24;2.15;;;1.00;;
20138;SDS011;10230;51.502;10.800;2022-10-16T03:37:50;0.77;;;0.77;;
20138;SDS011;10230;51.502;10.800;2022-10-16T03:40:16;1.10;;;0.85;;
20138;SDS011;10230;51.502;10.800;2022-10-16T03:42:43;0.68;;;0.68;;
20138;SDS011;10230;51.502;10.800;2022-10-16T03:45:09;0.75;;;0.75;;
20138;SDS011;10230;51.502;10.800;2022-10-16T03:47:36;1.73;;;0.80;;
20138;SDS011;10230;51.502;10.800;2022-10-16T03:50:04;1.52;;;0.90;;
20138;SDS011;10230;51.502;10.800;2022-10-16T03:52:30;0.95;;;0.85;;
20138;SDS011;10230;51.502;10.800;2022-10-16T03:54:59;1.10;;;0.90;;
20138;SDS011;10230;51.502;10.800;2022-10-16T03:57:30;2.15;;;1.50;;
20138;SDS011;10230;51.502;10.800;2022-10-16T04:00:03;1.33;;;1.07;;
20138;SDS011;10230;51.502;10.800;2022-10-16T04:02:32;1.10;;;1.00;;
20138;SDS011;10230;51.502;10.800;2022-10-16T04:04:58;1.00;;;1.00;;
20138;SDS011;10230;51.502;10.800;2022-10-16T04:07:23;1.20;;;0.90;;
20138;SDS011;10230;51.502;10.800;2022-10-16T04:09:49;1.57;;;1.00;;
20138;SDS011;10230;51.502;10.800;2022-10-16T04:12:17;2.42;;;1.73;;
20138;SDS011;10230;51.502;10.800;2022-10-16T04:14:43;0.68;;;0.52;;
20138;SDS011;10230;51.502;10.800;2022-10-16T04:17:12;0.80;;;0.80;;
20138;SDS011;10230;51.502;10.800;2022-10-16T04:19:39;0.73;;;0.73;;
20138;SDS011;10230;51.502;10.800;2022-10-16T04:22:05;1.58;;;1.20;;
20138;SDS011;10230;51.502;10.800;2022-10-16T04:24:31;1.27;;;0.82;;
20138;SDS011;10230;51.502;10.800;2022-10-16T04:26:56;0.95;;;0.70;;
20138;SDS011;10230;51.502;10.800;2022-10-16T04:29:22;0.60;;;0.60;;
20138;SDS011;10230;51.502;10.800;2022-10-16T04:31:47;0.88;;;0.70;;
20138;SDS011;10230;51.502;10.800;2022-10-16T04:34:13;1.33;;;0.85;;
20138;SDS011;10230;51.502;10.800;2022-10-16T04:36:39;1.38;;;0.95;;
20138;SDS011;10230;51.502;10.800;2022-10-16T04:39:04;1.17;;;0.90;;
20138;SDS011;10230;51.502;10.800;2022-10-16T04:41:30;0.60;;;0.60;;
20138;SDS011;10230;51.502;10.800;2022-10-16T04:43:56;0.70;;;0.70;;
20138;SDS011;10230;51.502;10.800;2022-10-16T04:46:21;0.90;;;0.83;;
20138;SDS011;10230;51.502;10.800;2022-10-16T04:48:47;0.80;;;0.80;;
20138;SDS011;10230;51.502;10.800;2022-10-16T04:51:12;0.98;;;0.85;;
20138;SDS011;10230;51.502;10.800;2022-10-16T04:53:38;2.00;;;0.70;;
20138;SDS011;10230;51.502;10.800;2022-10-16T04:56:04;2.80;;;1.40;;
20138;SDS011;10230;51.502;10.800;2022-10-16T04:58:30;1.10;;;0.90;;
20138;SDS011;10230;51.502;10.800;2022-10-16T05:00:56;0.80;;;0.80;;
20138;SDS011;10230;51.502;10.800;2022-10-16T05:03:21;1.00;;;0.90;;
20138;SDS011;10230;51.502;10.800;2022-10-16T05:05:47;1.08;;;0.98;;
20138;SDS011;10230;51.502;10.800;2022-10-16T05:08:13;1.57;;;1.00;;
20138;SDS011;10230;51.502;10.800;2022-10-16T05:10:40;0.90;;;0.70;;
20138;SDS011;10230;51.502;10.800;2022-10-16T05:13:07;0.77;;;0.77;;
20138;SDS011;10230;51.502;10.800;2022-10-16T05:15:33;1.73;;;1.00;;
20138;SDS011;10230;51.502;10.800;2022-10-16T05:17:59;1.47;;;0.90;;
20138;SDS011;10230;51.502;10.800;2022-10-16T05:20:25;1.43;;;1.13;;
20138;SDS011;10230;51.502;10.800;2022-10-16T05:22:51;3.95;;;1.02;;
20138;SDS011;10230;51.502;10.800;2022-10-16T05:25:17;1.65;;;1.20;;
20138;SDS011;10230;51.502;10.800;2022-10-16T05:27:43;1.73;;;1.40;;
20138;SDS011;10230;51.502;10.800;2022-10-16T05:30:11;1.30;;;1.20;;
20138;SDS011;10230;51.502;10.800;2022-10-16T05:32:37;1.30;;;1.17;;
20138;SDS011;10230;51.502;10.800;2022-10-16T05:35:03;2.05;;;1.33;;
20138;SDS011;10230;51.502;10.800;2022-10-16T05:37:28;0.90;;;0.90;;
20138;SDS011;10230;51.502;10.800;2022-10-16T05:39:54;1.05;;;0.90;;
20138;SDS011;10230;51.502;10.800;2022-10-16T05:42:20;1.20;;;0.93;;
20138;SDS011;10230;51.502;10.800;2022-10-16T05:44:45;2.17;;;0.83;;
20138;SDS011;10230;51.502;10.800;2022-10-16T05:47:12;1.60;;;1.33;;
20138;SDS011;10230;51.502;10.800;2022-10-16T05:49:39;1.20;;;1.20;;
20138;SDS011;10230;51.502;10.800;2022-10-16T05:52:05;0.85;;;0.73;;
20138;SDS011;10230;51.502;10.800;2022-10-16T05:54:30;2.13;;;0.77;;
20138;SDS011;10230;51.502;10.800;2022-10-16T05:56:57;0.80;;;0.70;;
20138;SDS011;10230;51.502;10.800;2022-10-16T05:59:22;0.68;;;0.57;;
20138;SDS011;10230;51.502;10.800;2022-10-16T06:01:48;1.63;;;0.70;;
20138;SDS011;10230;51.502;10.800;2022-10-16T06:04:14;1.40;;;1.02;;
20138;SDS011;10230;51.502;10.800;2022-10-16T06:06:40;2.87;;;0.87;;
20138;SDS011;10230;51.502;10.800;2022-10-16T06:09:06;0.93;;;0.80;;
20138;SDS011;10230;51.502;10.800;2022-10-16T06:11:32;0.88;;;0.82;;
20138;SDS011;10230;51.502;10.800;2022-10-16T06:14:00;0.90;;;0.80;;
20138;SDS011;10230;51.502;10.800;2022-10-16T06:16:27;1.20;;;1.00;;
20138;SDS011;10230;51.502;10.800;2022-10-16T06:18:54;1.33;;;1.23;;
20138;SDS011;10230;51.502;10.800;2022-10-16T06:21:21;1.77;;;1.00;;
20138;SDS011;10230;51.502;10.800;2022-10-16T06:23:52;2.25;;;1.20;;
20138;SDS011;10230;51.502;10.800;2022-10-16T06:26:20;2.30;;;0.90;;
20138;SDS011;10230;51.502;10.800;2022-10-16T06:28:47;0.97;;;0.97;;
20138;SDS011;10230;51.502;10.800;2022-10-16T06:31:14;5.32;;;1.70;;
20138;SDS011;10230;51.502;10.800;2022-10-16T06:33:40;1.30;;;1.20;;
20138;SDS011;10230;51.502;10.800;2022-10-16T06:36:07;1.40;;;1.30;;
20138;SDS011;10230;51.502;10.800;2022-10-16T06:38:38;1.48;;;1.30;;
20138;SDS011;10230;51.502;10.800;2022-10-16T06:41:04;2.37;;;2.17;;
20138;SDS011;10230;51.502;10.800;2022-10-16T06:43:31;2.28;;;1.30;;
20138;SDS011;10230;51.502;10.800;2022-10-16T06:45:58;1.43;;;1.10;;
20138;SDS011;10230;51.502;10.800;2022-10-16T06:48:25;3.17;;;2.00;;
20138;SDS011;10230;51.502;10.800;2022-10-16T06:51:01;1.77;;;1.30;;
20138;SDS011;10230;51.502;10.800;2022-10-16T06:53:33;1.77;;;1.30;;
20138;SDS011;10230;51.502;10.800;2022-10-16T06:56:07;2.33;;;1.55;;
20138;SDS011;10230;51.502;10.800;2022-10-16T06:58:52;1.50;;;1.02;;
20138;SDS011;10230;51.502;10.800;2022-10-16T07:01:20;0.90;;;0.90;;
20138;SDS011;10230;51.502;10.800;2022-10-16T07:03:47;1.08;;;0.98;;
20138;SDS011;10230;51.502;10.800;2022-10-16T07:06:14;0.73;;;0.73;;
20138;SDS011;10230;51.502;10.800;2022-10-16T07:08:42;1.20;;;1.10;;
20138;SDS011;10230;51.502;10.800;2022-10-16T07:11:10;1.52;;;1.27;;
20138;SDS011;10230;51.502;10.800;2022-10-16T07:13:44;1.10;;;0.70;;
20138;SDS011;10230;51.502;10.800;2022-10-16T07:16:21;0.90;;;0.77;;
20138;SDS011;10230;51.502;10.800;2022-10-16T07:18:48;1.83;;;1.13;;
20138;SDS011;10230;51.502;10.800;2022-10-16T07:21:17;1.85;;;0.47;;
20138;SDS011;10230;51.502;10.800;2022-10-16T07:23:45;2.15;;;0.70;;
20138;SDS011;10230;51.502;10.800;2022-10-16T07:26:15;1.23;;;0.50;;
20138;SDS011;10230;51.502;10.800;2022-10-16T07:28:40;3.47;;;0.77;;
20138;SDS011;10230;51.502;10.800;2022-10-16T07:31:09;0.68;;;0.40;;
20138;SDS011;10230;51.502;10.800;2022-10-16T07:33:37;0.60;;;0.40;;
20138;SDS011;10230;51.502;10.800;2022-10-16T07:36:04;0.88;;;0.60;;
20138;SDS011;10230;51.502;10.800;2022-10-16T07:38:30;2.00;;;1.10;;
20138;SDS011;10230;51.502;10.800;2022-10-16T07:40:59;0.50;;;0.47;;
20138;SDS011;10230;51.502;10.800;2022-10-16T07:43:27;1.13;;;0.75;;
20138;SDS011;10230;51.502;10.800;2022-10-16T07:45:53;1.08;;;0.50;;
20138;SDS011;10230;51.502;10.800;2022-10-16T07:48:20;2.72;;;0.70;;
20138;SDS011;10230;51.502;10.800;2022-10-16T07:50:46;1.83;;;0.50;;
20138;SDS011;10230;51.502;10.800;2022-10-16T07:53:12;2.03;;;0.40;;
20138;SDS011;10230;51.502;10.800;2022-10-16T07:55:38;2.22;;;0.52;;
20138;SDS011;10230;51.502;10.800;2022-10-16T07:58:04;0.88;;;0.52;;
20138;SDS011;10230;51.502;10.800;2022-10-16T08:00:31;3.03;;;1.13;;
20138;SDS011;10230;51.502;10.800;2022-10-16T08:02:57;6.28;;;2.13;;
20138;SDS011;10230;51.502;10.800;2022-10-16T08:05:27;6.88;;;2.85;;
20138;SDS011;10230;51.502;10.800;2022-10-16T08:07:54;9.55;;;3.30;;
20138;SDS011;10230;51.502;10.800;2022-10-16T08:10:21;8.10;;;3.03;;
20138;SDS011;10230;51.502;10.800;2022-10-16T08:12:48;3.92;;;1.45;;
20138;SDS011;10230;51.502;10.800;2022-10-16T08:15:14;3.15;;;1.00;;
20138;SDS011;10230;51.502;10.800;2022-10-16T08:17:39;5.10;;;1.33;;
20138;SDS011;10230;51.502;10.800;2022-10-16T08:20:05;0.60;;;0.43;;
20138;SDS011;10230;51.502;10.800;2022-10-16T08:22:31;0.28;;;0.28;;
20138;SDS011;10230;51.502;10.800;2022-10-16T08:24:57;1.27;;;0.60;;
20138;SDS011;10230;51.502;10.800;2022-10-16T08:27:23;0.82;;;0.35;;
20138;SDS011;10230;51.502;10.800;2022-10-16T08:29:48;1.55;;;0.40;;
20138;SDS011;10230;51.502;10.800;2022-10-16T08:32:14;0.80;;;0.40;;
20138;SDS011;10230;51.502;10.800;2022-10-16T08:34:40;0.65;;;0.30;;
20138;SDS011;10230;51.502;10.800;2022-10-16T08:37:06;2.15;;;0.40;;
20138;SDS011;10230;51.502;10.800;2022-10-16T08:39:33;0.43;;;0.22;;
20138;SDS011;10230;51.502;10.800;2022-10-16T08:42:05;1.13;;;0.68;;
20138;SDS011;10230;51.502;10.800;2022-10-16T08:44:57;0.70;;;0.70;;
20138;SDS011;10230;51.502;10.800;2022-10-16T08:50:31;1.25;;;0.38;;
20138;SDS011;10230;51.502;10.800;2022-10-16T08:53:01;0.30;;;0.30;;
20138;SDS011;10230;51.502;10.800;2022-10-16T08:58:12;0.30;;;0.30;;
20138;SDS011;10230;51.502;10.800;2022-10-16T09:00:39;0.80;;;0.30;;
20138;SDS011;10230;51.502;10.800;2022-10-16T09:16:54;1.58;;;0.40;;
20138;SDS011;10230;51.502;10.800;2022-10-16T09:21:57;0.57;;;0.30;;
20138;SDS011;10230;51.502;10.800;2022-10-16T09:24:26;1.98;;;1.30;;
20138;SDS011;10230;51.502;10.800;2022-10-16T09:26:52;0.47;;;0.38;;
20138;SDS011;10230;51.502;10.800;2022-10-16T09:29:19;0.75;;;0.25;;
20138;SDS011;10230;51.502;10.800;2022-10-16T09:31:46;0.40;;;0.25;;
20138;SDS011;10230;51.502;10.800;2022-10-16T09:34:30;0.77;;;0.22;;
20138;SDS011;10230;51.502;10.800;2022-10-16T09:36:58;3.20;;;0.30;;
20138;SDS011;10230;51.502;10.800;2022-10-16T09:39:25;1.85;;;0.30;;
20138;SDS011;10230;51.502;10.800;2022-10-16T09:41:50;1.70;;;0.20;;
20138;SDS011;10230;51.502;10.800;2022-10-16T09:44:24;0.68;;;0.30;;
20138;SDS011;10230;51.502;10.800;2022-10-16T09:47:05;1.05;;;0.50;;
20138;SDS011;10230;51.502;10.800;2022-10-16T09:49:39;0.35;;;0.30;;
20138;SDS011;10230;51.502;10.800;2022-10-16T09:52:21;0.25;;;0.25;;
20138;SDS011;10230;51.502;10.800;2022-10-16T09:54:50;0.88;;;0.75;;
20138;SDS011;10230;51.502;10.800;2022-10-16T09:57:18;0.60;;;0.30;;
20138;SDS011;10230;51.502;10.800;2022-10-16T09:59:51;0.70;;;0.50;;
20138;SDS011;10230;51.502;10.800;2022-10-16T10:02:18;1.92;;;0.68;;
20138;SDS011;10230;51.502;10.800;2022-10-16T10:04:48;1.08;;;0.50;;
20138;SDS011;10230;51.502;10.800;2022-10-16T10:07:23;0.50;;;0.40;;
20138;SDS011;10230;51.502;10.800;2022-10-16T10:09:50;0.30;;;0.30;;
20138;SDS011;10230;51.502;10.800;2022-10-16T10:12:20;0.30;;;0.30;;
20138;SDS011;10230;51.502;10.800;2022-10-16T10:14:48;1.45;;;0.52;;
20138;SDS011;10230;51.502;10.800;2022-10-16T10:19:59;3.72;;;1.48;;
20138;SDS011;10230;51.502;10.800;2022-10-16T10:22:38;0.60;;;0.40;;
20138;SDS011;10230;51.502;10.800;2022-10-16T10:33:09;0.47;;;0.20;;
20138;SDS011;10230;51.502;10.800;2022-10-16T10:35:45;2.92;;;0.40;;
20138;SDS011;10230;51.502;10.800;2022-10-16T10:45:59;1.02;;;0.75;;
20138;SDS011;10230;51.502;10.800;2022-10-16T10:48:42;0.45;;;0.43;;
20138;SDS011;10230;51.502;10.800;2022-10-16T10:51:16;1.45;;;0.40;;
20138;SDS011;10230;51.502;10.800;2022-10-16T10:56:41;1.27;;;0.77;;
20138;SDS011;10230;51.502;10.800;2022-10-16T11:02:31;0.32;;;0.10;;
20138;SDS011;10230;51.502;10.800;2022-10-16T11:05:40;0.28;;;0.10;;
20138;SDS011;10230;51.502;10.800;2022-10-16T11:07:55;0.98;;;0.10;;
20138;SDS011;10230;51.502;10.800;2022-10-16T11:10:34;0.52;;;0.10;;
20138;SDS011;10230;51.502;10.800;2022-10-16T11:15:43;0.20;;;0.20;;
20138;SDS011;10230;51.502;10.800;2022-10-16T11:18:15;0.63;;;0.20;;
20138;SDS011;10230;51.502;10.800;2022-10-16T11:20:50;0.73;;;0.73;;
20138;SDS011;10230;51.502;10.800;2022-10-16T11:23:26;0.30;;;0.30;;
20138;SDS011;10230;51.502;10.800;2022-10-16T11:26:08;0.35;;;0.20;;
20138;SDS011;10230;51.502;10.800;2022-10-16T11:28:45;0.68;;;0.47;;
20138;SDS011;10230;51.502;10.800;2022-10-16T11:34:02;0.13;;;0.13;;
20138;SDS011;10230;51.502;10.800;2022-10-16T11:36:49;0.40;;;0.20;;
20138;SDS011;10230;51.502;10.800;2022-10-16T11:39:23;0.10;;;0.10;;
20138;SDS011;10230;51.502;10.800;2022-10-16T11:47:16;0.25;;;0.22;;
20138;SDS011;10230;51.502;10.800;2022-10-16T11:49:45;0.60;;;0.10;;
20138;SDS011;10230;51.502;10.800;2022-10-16T11:57:34;0.57;;;0.30;;
20138;SDS011;10230;51.502;10.800;2022-10-16T12:00:09;0.50;;;0.10;;
20138;SDS011;10230;51.502;10.800;2022-10-16T12:06:06;0.20;;;0.20;;
20138;SDS011;10230;51.502;10.800;2022-10-16T12:08:14;0.95;;;0.22;;
20138;SDS011;10230;51.502;10.800;2022-10-16T12:10:42;0.47;;;0.47;;
20138;SDS011;10230;51.502;10.800;2022-10-16T12:16:03;0.50;;;0.40;;
20138;SDS011;10230;51.502;10.800;2022-10-16T12:18:29;0.68;;;0.40;;
20138;SDS011;10230;51.502;10.800;2022-10-16T12:20:55;0.20;;;0.20;;
20138;SDS011;10230;51.502;10.800;2022-10-16T12:55:49;0.32;;;0.30;;
20138;SDS011;10230;51.502;10.800;2022-10-16T12:58:44;1.58;;;1.00;;
20138;SDS011;10230;51.502;10.800;2022-10-16T13:01:28;0.65;;;0.50;;
20138;SDS011;10230;51.502;10.800;2022-10-16T13:36:01;1.00;;;0.20;;
20138;SDS011;10230;51.502;10.800;2022-10-16T13:38:28;0.40;;;0.20;;
20138;SDS011;10230;51.502;10.800;2022-10-16T13:40:58;0.15;;;0.15;;
20138;SDS011;10230;51.502;10.800;2022-10-16T13:43:28;0.30;;;0.10;;
20138;SDS011;10230;51.502;10.800;2022-10-16T13:46:04;0.40;;;0.13;;
20138;SDS011;10230;51.502;10.800;2022-10-16T13:48:31;0.50;;;0.13;;
20138;SDS011;10230;51.502;10.800;2022-10-16T13:51:02;0.93;;;0.20;;
20138;SDS011;10230;51.502;10.800;2022-10-16T13:53:42;0.13;;;0.10;;
20138;SDS011;10230;51.502;10.800;2022-10-16T13:56:10;0.20;;;0.10;;
20138;SDS011;10230;51.502;10.800;2022-10-16T13:58:39;0.35;;;0.17;;
20138;SDS011;10230;51.502;10.800;2022-10-16T14:01:06;0.20;;;0.20;;
20138;SDS011;10230;51.502;10.800;2022-10-16T14:03:44;0.30;;;0.20;;
20138;SDS011;10230;51.502;10.800;2022-10-16T14:06:12;0.38;;;0.30;;
20138;SDS011;10230;51.502;10.800;2022-10-16T14:08:57;0.30;;;0.22;;
20138;SDS011;10230;51.502;10.800;2022-10-16T14:11:31;0.17;;;0.10;;
20138;SDS011;10230;51.502;10.800;2022-10-16T14:14:00;0.03;;;0.03;;
20138;SDS011;10230;51.502;10.800;2022-10-16T14:16:28;0.50;;;0.10;;
20138;SDS011;10230;51.502;10.800;2022-10-16T14:19:00;0.10;;;0.10;;
20138;SDS011;10230;51.502;10.800;2022-10-16T14:21:30;1.15;;;0.17;;
20138;SDS011;10230;51.502;10.800;2022-10-16T14:23:57;1.02;;;0.20;;
20138;SDS011;10230;51.502;10.800;2022-10-16T14:26:24;0.45;;;0.15;;
20138;SDS011;10230;51.502;10.800;2022-10-16T14:34:37;0.73;;;0.40;;
20138;SDS011;10230;51.502;10.800;2022-10-16T14:37:08;0.82;;;0.40;;
20138;SDS011;10230;51.502;10.800;2022-10-16T14:39:48;0.20;;;0.10;;
20138;SDS011;10230;51.502;10.800;2022-10-16T14:42:16;0.80;;;0.32;;
20138;SDS011;10230;51.502;10.800;2022-10-16T14:44:44;0.38;;;0.20;;
20138;SDS011;10230;51.502;10.800;2022-10-16T14:47:16;0.10;;;0.10;;
20138;SDS011;10230;51.502;10.800;2022-10-16T14:49:47;0.13;;;0.10;;
20138;SDS011;10230;51.502;10.800;2022-10-16T14:52:13;0.10;;;0.10;;
20138;SDS011;10230;51.502;10.800;2022-10-16T14:54:40;0.13;;;0.10;;
20138;SDS011;10230;51.502;10.800;2022-10-16T14:57:12;0.20;;;0.10;;
20138;SDS011;10230;51.502;10.800;2022-10-16T14:59:41;1.45;;;0.20;;
20138;SDS011;10230;51.502;10.800;2022-10-16T15:04:52;0.85;;;0.40;;
20138;SDS011;10230;51.502;10.800;2022-10-16T15:07:18;0.55;;;0.40;;
20138;SDS011;10230;51.502;10.800;2022-10-16T15:09:44;0.70;;;0.50;;
20138;SDS011;10230;51.502;10.800;2022-10-16T15:12:10;0.70;;;0.30;;
20138;SDS011;10230;51.502;10.800;2022-10-16T15:14:35;0.60;;;0.30;;
20138;SDS011;10230;51.502;10.800;2022-10-16T15:17:01;1.25;;;0.43;;
20138;SDS011;10230;51.502;10.800;2022-10-16T15:19:27;0.20;;;0.20;;
20138;SDS011;10230;51.502;10.800;2022-10-16T15:21:53;0.73;;;0.30;;
20138;SDS011;10230;51.502;10.800;2022-10-16T15:24:19;0.45;;;0.30;;
20138;SDS011;10230;51.502;10.800;2022-10-16T15:26:45;0.60;;;0.20;;
20138;SDS011;10230;51.502;10.800;2022-10-16T15:29:11;0.20;;;0.20;;
20138;SDS011;10230;51.502;10.800;2022-10-16T15:31:38;0.20;;;0.20;;
20138;SDS011;10230;51.502;10.800;2022-10-16T15:34:07;1.17;;;0.38;;
20138;SDS011;10230;51.502;10.800;2022-10-16T15:36:34;0.35;;;0.30;;
20138;SDS011;10230;51.502;10.800;2022-10-16T15:39:19;1.95;;;1.20;;
20138;SDS011;10230;51.502;10.800;2022-10-16T15:41:46;0.90;;;0.52;;
20138;SDS011;10230;51.502;10.800;2022-10-16T15:44:19;1.77;;;0.40;;
20138;SDS011;10230;51.502;10.800;2022-10-16T15:46:45;2.95;;;2.00;;
20138;SDS011;10230;51.502;10.800;2022-10-16T15:49:12;2.15;;;0.98;;
20138;SDS011;10230;51.502;10.800;2022-10-16T15:51:38;0.70;;;0.60;;
20138;SDS011;10230;51.502;10.800;2022-10-16T15:54:05;1.38;;;0.70;;
20138;SDS011;10230;51.502;10.800;2022-10-16T15:56:31;0.70;;;0.50;;
20138;SDS011;10230;51.502;10.800;2022-10-16T15:58:58;1.65;;;0.70;;
20138;SDS011;10230;51.502;10.800;2022-10-16T16:01:25;1.70;;;0.95;;
20138;SDS011;10230;51.502;10.800;2022-10-16T16:03:54;2.58;;;0.90;;
20138;SDS011;10230;51.502;10.800;2022-10-16T16:06:20;1.52;;;0.85;;
20138;SDS011;10230;51.502;10.800;2022-10-16T16:08:48;1.30;;;1.00;;
20138;SDS011;10230;51.502;10.800;2022-10-16T16:11:15;1.92;;;1.10;;
20138;SDS011;10230;51.502;10.800;2022-10-16T16:13:42;3.22;;;1.30;;
20138;SDS011;10230;51.502;10.800;2022-10-16T16:16:09;1.42;;;0.82;;
20138;SDS011;10230;51.502;10.800;2022-10-16T16:18:36;1.33;;;0.85;;
20138;SDS011;10230;51.502;10.800;2022-10-16T16:21:02;2.40;;;1.13;;
20138;SDS011;10230;51.502;10.800;2022-10-16T16:23:28;1.92;;;1.00;;
20138;SDS011;10230;51.502;10.800;2022-10-16T16:28:30;1.35;;;0.80;;
20138;SDS011;10230;51.502;10.800;2022-10-16T16:30:56;1.20;;;0.80;;
20138;SDS011;10230;51.502;10.800;2022-10-16T16:33:22;1.15;;;0.80;;
20138;SDS011;10230;51.502;10.800;2022-10-16T16:35:48;1.27;;;1.05;;
20138;SDS011;10230;51.502;10.800;2022-10-16T16:38:14;1.80;;;1.20;;
20138;SDS011;10230;51.502;10.800;2022-10-16T16:40:40;2.55;;;1.00;;
20138;SDS011;10230;51.502;10.800;2022-10-16T16:43:06;6.38;;;0.80;;
20138;SDS011;10230;51.502;10.800;2022-10-16T16:45:35;2.20;;;1.00;;
20138;SDS011;10230;51.502;10.800;2022-10-16T16:48:01;2.33;;;1.13;;
20138;SDS011;10230;51.502;10.800;2022-10-16T16:50:27;2.80;;;1.80;;
20138;SDS011;10230;51.502;10.800;2022-10-16T16:52:53;1.83;;;1.33;;
20138;SDS011;10230;51.502;10.800;2022-10-16T16:55:19;2.78;;;1.67;;
20138;SDS011;10230;51.502;10.800;2022-10-16T16:57:47;2.38;;;1.60;;
20138;SDS011;10230;51.502;10.800;2022-10-16T17:00:13;5.80;;;2.00;;
20138;SDS011;10230;51.502;10.800;2022-10-16T17:02:39;2.63;;;1.73;;
20138;SDS011;10230;51.502;10.800;2022-10-16T17:05:08;5.95;;;1.10;;
20138;SDS011;10230;51.502;10.800;2022-10-16T17:07:34;2.70;;;1.63;;
20138;SDS011;10230;51.502;10.800;2022-10-16T17:10:01;2.22;;;1.50;;
20138;SDS011;10230;51.502;10.800;2022-10-16T17:12:28;1.50;;;1.10;;
20138;SDS011;10230;51.502;10.800;2022-10-16T17:14:54;3.30;;;1.30;;
20138;SDS011;10230;51.502;10.800;2022-10-16T17:17:20;2.05;;;1.23;;
20138;SDS011;10230;51.502;10.800;2022-10-16T17:19:48;1.73;;;1.20;;
20138;SDS011;10230;51.502;10.800;2022-10-16T17:22:14;2.00;;;1.33;;